Time,TemperatureF,DewpointF,PressureIn,WindDirection,WindDirectionDegrees,WindSpeedMPH,WindSpeedGustMPH,Humidity,HourlyPrecipIn,Conditions,Clouds,dailyrainin,SolarRadiationWatts/m^2,SoftwareType,DateUTC
2013-03-01 00:00:00,26.5,18.7,30.33,SSW,211,3.0,5.0,72,0.00,,SKC,0.01,0.00,VWS V14.01,2013-03-01 07:00:00,
2013-03-01 00:01:00,26.5,18.7,30.33,SSW,211,3.0,5.0,72,0.00,,SKC,0.01,0.00,VWS V14.01,2013-03-01 07:01:00,
2013-03-01 00:07:00,26.4,19.9,30.32,NNE,22,1.0,4.0,76,0.00,,SKC,0.00,0.00,VWS V14.01,2013-03-01 07:07:00,
2013-03-01 00:13:00,26.2,20.6,30.32,NE,53,2.0,5.0,79,0.00,,SKC,0.00,0.00,VWS V14.01,2013-03-01 07:13:00,
2013-03-01 00:15:00,26.1,20.8,30.32,NE,53,0.0,5.0,80,0.00,,SKC,0.00,0.00,VWS V14.01,2013-03-01 07:15:00,
2013-03-01 00:19:00,26.0,21.0,30.32,NE,40,2.0,9.0,81,0.00,,SKC,0.00,0.00,VWS V14.01,2013-03-01 07:19:00,
2013-03-01 00:25:00,25.8,21.1,30.33,NE,51,1.0,9.0,82,0.00,,SKC,0.00,0.00,VWS V14.01,2013-03-01 07:25:00,
2013-03-01 00:30:00,25.6,21.5,30.32,NE,41,0.0,9.0,84,0.00,,SKC,0.00,0.00,VWS V14.01,2013-03-01 07:30:00,
2013-03-01 00:37:00,25.5,21.4,30.32,NNE,32,2.0,5.0,84,0.00,,SKC,0.00,0.00,VWS V14.01,2013-03-01 07:37:00,
2013-03-01 00:43:00,25.4,21.2,30.34,NNE,32,2.0,5.0,84,0.00,,SKC,0.00,0.00,VWS V14.01,2013-03-01 07:43:00,
2013-03-01 00:45:00,25.4,21.2,30.34,NNE,32,0.0,5.0,84,0.00,,SKC,0.00,0.00,VWS V14.01,2013-03-01 07:45:00,
2013-03-01 00:49:00,25.4,21.5,30.35,NNE,32,0.0,1.0,85,0.00,,SKC,0.00,0.00,VWS V14.01,2013-03-01 07:49:00,
2013-03-01 00:55:00,25.4,21.5,30.35,NNE,32,0.0,1.0,85,0.00,,SKC,0.00,0.00,VWS V14.01,2013-03-01 07:55:00,
2013-03-01 01:00:00,25.4,21.5,30.35,NNE,32,0.0,1.0,85,0.00,,SKC,0.00,0.00,VWS V14.01,2013-03-01 08:00:00,
2013-03-01 01:01:00,25.4,21.5,30.35,NNE,32,0.0,1.0,85,0.00,,SKC,0.00,0.00,VWS V14.01,2013-03-01 08:01:00,
2013-03-01 01:06:00,25.3,21.4,30.32,NNE,32,0.0,0.0,85,0.00,,SKC,0.00,0.00,VWS V14.01,2013-03-01 08:06:00,
2013-03-01 01:12:00,25.3,21.1,30.32,NNE,32,0.0,0.0,84,0.00,,SKC,0.00,0.00,VWS V14.01,2013-03-01 08:12:00,
2013-03-01 01:15:00,25.3,21.1,30.32,NNE,32,0.0,0.0,84,0.00,,SKC,0.00,0.00,VWS V14.01,2013-03-01 08:15:00,
2013-03-01 01:18:00,25.2,21.0,30.32,NNE,32,0.0,0.0,84,0.00,,SKC,0.00,0.00,VWS V14.01,2013-03-01 08:18:00,
2013-03-01 01:24:00,25.2,21.0,30.32,NNE,32,0.0,0.0,84,0.00,,SKC,0.00,0.00,VWS V14.01,2013-03-01 08:24:00,
2013-03-01 01:30:00,25.1,21.0,30.32,NNE,32,0.0,1.0,84,0.00,,SKC,0.00,0.00,VWS V14.01,2013-03-01 08:30:00,
2013-03-01 01:36:00,25.0,21.1,30.32,NNE,32,0.0,1.0,85,0.00,,SKC,0.00,0.00,VWS V14.01,2013-03-01 08:36:00,
2013-03-01 01:42:00,25.0,21.1,30.32,NNE,32,0.0,1.0,85,0.00,,SKC,0.00,0.00,VWS V14.01,2013-03-01 08:42:00,
2013-03-01 01:45:00,24.9,21.0,30.32,NNE,32,0.0,1.0,85,0.00,,SKC,0.00,0.00,VWS V14.01,2013-03-01 08:45:00,
2013-03-01 01:48:00,24.9,21.0,30.32,NNE,32,0.0,0.0,85,0.00,,SKC,0.00,0.00,VWS V14.01,2013-03-01 08:48:00,
2013-03-01 01:54:00,24.8,20.9,30.32,NNE,33,0.0,0.0,85,0.00,,SKC,0.00,0.00,VWS V14.01,2013-03-01 08:54:00,
2013-03-01 02:00:00,24.7,20.6,30.32,NNE,32,0.0,0.0,84,0.00,,SKC,0.00,0.00,VWS V14.01,2013-03-01 09:00:00,
2013-03-01 02:06:00,24.5,20.4,30.32,NNE,32,0.0,0.0,84,0.00,,SKC,0.00,0.00,VWS V14.01,2013-03-01 09:06:00,
2013-03-01 02:12:00,24.3,20.2,30.33,NNE,32,0.0,1.0,84,0.00,,SKC,0.00,0.00,VWS V14.01,2013-03-01 09:12:00,
2013-03-01 02:15:00,24.2,20.1,30.34,NNE,32,0.0,1.0,84,0.00,,SKC,0.00,0.00,VWS V14.01,2013-03-01 09:15:00,
2013-03-01 02:18:00,24.1,19.7,30.33,NNE,32,0.0,0.0,83,0.00,,SKC,0.00,0.00,VWS V14.01,2013-03-01 09:18:00,
2013-03-01 02:24:00,23.8,19.4,30.34,NNE,32,0.0,0.0,83,0.00,,SKC,0.00,0.00,VWS V14.01,2013-03-01 09:24:00,
2013-03-01 02:30:00,23.6,19.2,30.33,NNE,32,0.0,0.0,83,0.00,,SKC,0.00,0.00,VWS V14.01,2013-03-01 09:30:00,
2013-03-01 02:36:00,23.4,19.0,30.33,NNE,32,0.0,0.0,83,0.00,,SKC,0.00,0.00,VWS V14.01,2013-03-01 09:36:00,
2013-03-01 02:42:00,23.2,18.8,30.32,NNE,32,0.0,0.0,83,0.00,,SKC,0.00,0.00,VWS V14.01,2013-03-01 09:42:00,
2013-03-01 02:45:00,23.0,18.6,30.32,NNE,33,0.0,2.0,83,0.00,,SKC,0.00,0.00,VWS V14.01,2013-03-01 09:45:00,
2013-03-01 02:48:00,22.9,18.8,30.32,NNE,32,0.0,1.0,84,0.00,,SKC,0.00,0.00,VWS V14.01,2013-03-01 09:48:00,
2013-03-01 02:54:00,22.9,19.1,30.32,NNE,32,0.0,1.0,85,0.00,,SKC,0.00,0.00,VWS V14.01,2013-03-01 09:54:00,
2013-03-01 03:00:00,22.9,19.1,30.31,NNE,32,0.0,1.0,85,0.00,,SKC,0.00,0.00,VWS V14.01,2013-03-01 10:00:00,
2013-03-01 03:06:00,23.3,19.5,30.29,SW,227,0.0,6.0,85,0.00,,SKC,0.00,0.00,VWS V14.01,2013-03-01 10:06:00,
2013-03-01 03:12:00,24.0,19.6,30.29,SW,221,1.0,6.0,83,0.00,,SKC,0.00,0.00,VWS V14.01,2013-03-01 10:12:00,
2013-03-01 03:15:00,24.5,19.8,30.29,SSW,195,0.0,6.0,82,0.00,,SKC,0.00,0.00,VWS V14.01,2013-03-01 10:15:00,
2013-03-01 03:18:00,24.9,19.9,30.28,South,169,3.0,6.0,81,0.00,,SKC,0.00,0.00,VWS V14.01,2013-03-01 10:18:00,
2013-03-01 03:24:00,25.7,20.1,30.28,SSW,213,0.0,7.0,79,0.00,,SKC,0.00,0.00,VWS V14.01,2013-03-01 10:24:00,
2013-03-01 03:30:00,26.0,19.8,30.28,NE,44,3.0,7.0,77,0.00,,SKC,0.00,0.00,VWS V14.01,2013-03-01 10:30:00,
2013-03-01 03:36:00,25.8,20.2,30.28,NE,34,2.0,6.0,79,0.00,,SKC,0.00,0.00,VWS V14.01,2013-03-01 10:36:00,
2013-03-01 03:43:00,25.2,20.2,30.28,NE,40,4.0,7.0,81,0.00,,SKC,0.00,0.00,VWS V14.01,2013-03-01 10:43:00,
2013-03-01 03:45:00,25.0,20.3,30.29,NE,38,2.0,9.0,82,0.00,,SKC,0.00,0.00,VWS V14.01,2013-03-01 10:45:00,
2013-03-01 03:49:00,24.8,20.1,30.29,NE,44,3.0,8.0,82,0.00,,SKC,0.00,0.00,VWS V14.01,2013-03-01 10:49:00,
2013-03-01 03:55:00,24.5,20.4,30.29,NE,38,0.0,8.0,84,0.00,,SKC,0.00,0.00,VWS V14.01,2013-03-01 10:55:00,
2013-03-01 04:00:00,24.3,20.2,30.31,NNE,28,2.0,8.0,84,0.00,,SKC,0.00,0.00,VWS V14.01,2013-03-01 11:00:00,
2013-03-01 04:01:00,24.3,20.2,30.31,NNE,28,2.0,8.0,84,0.00,,SKC,0.00,0.00,VWS V14.01,2013-03-01 11:01:00,
2013-03-01 04:07:00,24.2,20.4,30.33,NNE,30,1.0,3.0,85,0.00,,SKC,0.00,0.00,VWS V14.01,2013-03-01 11:07:00,
2013-03-01 04:13:00,24.1,20.2,30.33,NNE,29,1.0,4.0,85,0.00,,SKC,0.00,0.00,VWS V14.01,2013-03-01 11:13:00,
2013-03-01 04:15:00,24.1,20.5,30.33,NNE,30,2.0,4.0,86,0.00,,SKC,0.00,0.00,VWS V14.01,2013-03-01 11:15:00,
2013-03-01 04:19:00,24.2,20.6,30.33,NNE,30,0.0,2.0,86,0.00,,SKC,0.00,0.00,VWS V14.01,2013-03-01 11:19:00,
2013-03-01 04:25:00,24.1,20.5,30.33,NNE,30,0.0,2.0,86,0.00,,SKC,0.00,0.00,VWS V14.01,2013-03-01 11:25:00,
2013-03-01 04:30:00,24.1,20.5,30.33,NNE,29,0.0,3.0,86,0.00,,SKC,0.00,0.00,VWS V14.01,2013-03-01 11:30:00,
2013-03-01 04:37:00,24.0,20.4,30.34,NNE,30,0.0,0.0,86,0.00,,SKC,0.00,0.00,VWS V14.01,2013-03-01 11:37:00,
2013-03-01 04:43:00,24.0,20.4,30.34,NNE,30,0.0,1.0,86,0.00,,SKC,0.00,0.00,VWS V14.01,2013-03-01 11:43:00,
2013-03-01 04:45:00,24.0,20.4,30.34,NNE,30,0.0,1.0,86,0.00,,SKC,0.00,0.00,VWS V14.01,2013-03-01 11:45:00,
2013-03-01 04:49:00,24.0,20.4,30.34,NNE,30,0.0,0.0,86,0.00,,SKC,0.00,0.00,VWS V14.01,2013-03-01 11:49:00,
2013-03-01 04:58:00,23.9,20.3,30.34,NNE,30,0.0,0.0,86,0.00,,SKC,0.00,0.00,VWS V14.01,2013-03-01 11:58:00,
2013-03-01 05:00:00,23.9,20.3,30.34,NNE,30,0.0,0.0,86,0.00,,SKC,0.00,0.00,VWS V14.01,2013-03-01 12:00:00,
2013-03-01 05:04:00,23.9,20.3,30.34,NNE,30,0.0,0.0,86,0.00,,SKC,0.00,0.00,VWS V14.01,2013-03-01 12:04:00,
2013-03-01 05:10:00,23.9,20.3,30.33,NNE,30,1.0,1.0,86,0.00,,SKC,0.00,0.00,VWS V14.01,2013-03-01 12:10:00,
2013-03-01 05:15:00,23.9,20.3,30.34,NNE,30,0.0,1.0,86,0.00,,SKC,0.00,0.00,VWS V14.01,2013-03-01 12:15:00,
2013-03-01 05:16:00,23.9,20.3,30.34,NNE,30,0.0,1.0,86,0.00,,SKC,0.00,0.00,VWS V14.01,2013-03-01 12:16:00,
2013-03-01 05:21:00,23.9,20.6,30.33,NNE,29,0.0,1.0,87,0.00,,SKC,0.00,0.00,VWS V14.01,2013-03-01 12:21:00,
2013-03-01 05:27:00,23.9,20.6,30.34,North,360,2.0,3.0,87,0.00,,SKC,0.00,0.00,VWS V14.01,2013-03-01 12:27:00,
2013-03-01 05:30:00,23.9,20.6,30.34,North,5,0.0,3.0,87,0.00,,SKC,0.00,0.00,VWS V14.01,2013-03-01 12:30:00,
2013-03-01 05:33:00,23.9,20.6,30.34,North,5,0.0,0.0,87,0.00,,SKC,0.00,0.00,VWS V14.01,2013-03-01 12:33:00,
2013-03-01 05:39:00,23.9,20.6,30.34,North,5,0.0,0.0,87,0.00,,SKC,0.00,0.00,VWS V14.01,2013-03-01 12:39:00,
2013-03-01 05:45:00,24.0,20.7,30.34,North,5,0.0,0.0,87,0.00,,SKC,0.00,0.00,VWS V14.01,2013-03-01 12:45:00,
2013-03-01 05:51:00,24.0,20.7,30.34,North,360,0.0,1.0,87,0.00,,SKC,0.00,0.00,VWS V14.01,2013-03-01 12:51:00,
2013-03-01 05:57:00,24.0,20.7,30.34,North,360,1.0,3.0,87,0.00,,SKC,0.00,0.00,VWS V14.01,2013-03-01 12:57:00,
2013-03-01 06:00:00,24.1,20.8,30.34,North,360,2.0,3.0,87,0.00,,SKC,0.00,0.00,VWS V14.01,2013-03-01 13:00:00,
2013-03-01 06:03:00,24.1,20.8,30.38,North,5,0.0,2.0,87,0.00,,SKC,0.00,0.00,VWS V14.01,2013-03-01 13:03:00,
2013-03-01 06:09:00,24.1,20.8,30.38,NNE,30,0.0,4.0,87,0.00,,SKC,0.00,0.00,VWS V14.01,2013-03-01 13:09:00,
2013-03-01 06:15:00,24.2,20.9,30.38,NNE,26,1.0,4.0,87,0.00,,SKC,0.00,0.00,VWS V14.01,2013-03-01 13:15:00,
2013-03-01 06:21:00,24.2,21.2,30.38,NNE,30,4.0,4.0,88,0.00,,SKC,0.00,0.00,VWS V14.01,2013-03-01 13:21:00,
2013-03-01 06:27:00,24.2,21.2,30.37,NNE,30,0.0,4.0,88,0.00,,SKC,0.00,0.00,VWS V14.01,2013-03-01 13:27:00,
2013-03-01 06:30:00,24.2,21.2,30.37,NNE,30,0.0,4.0,88,0.00,,SKC,0.00,0.00,VWS V14.01,2013-03-01 13:30:00,
2013-03-01 06:33:00,24.2,21.2,30.37,NNE,30,0.0,0.0,88,0.00,,SKC,0.00,0.00,VWS V14.01,2013-03-01 13:33:00,
2013-03-01 06:39:00,24.2,21.2,30.38,NNE,30,0.0,0.0,88,0.00,,SKC,0.00,0.00,VWS V14.01,2013-03-01 13:39:00,
2013-03-01 06:45:00,24.2,21.2,30.37,NNE,30,0.0,1.0,88,0.00,,SKC,0.00,0.00,VWS V14.01,2013-03-01 13:45:00,
2013-03-01 06:51:00,24.2,21.2,30.37,NNE,30,0.0,1.0,88,0.00,,SKC,0.00,0.00,VWS V14.01,2013-03-01 13:51:00,
2013-03-01 06:57:00,24.2,21.2,30.38,NNE,30,0.0,2.0,88,0.00,,SKC,0.00,0.00,VWS V14.01,2013-03-01 13:57:00,
2013-03-01 07:00:00,24.3,21.3,30.38,NNE,30,0.0,2.0,88,0.00,,SKC,0.00,0.00,VWS V14.01,2013-03-01 14:00:00,
2013-03-01 07:03:00,24.3,21.3,30.38,NNE,30,0.0,0.0,88,0.00,,SKC,0.00,0.00,VWS V14.01,2013-03-01 14:03:00,
2013-03-01 07:09:00,24.5,21.5,30.38,SE,138,0.0,3.0,88,0.00,,SKC,0.00,0.00,VWS V14.01,2013-03-01 14:09:00,
2013-03-01 07:15:00,24.8,21.8,30.38,South,183,2.0,3.0,88,0.00,,SKC,0.00,5.00,VWS V14.01,2013-03-01 14:15:00,
2013-03-01 07:21:00,25.3,22.0,30.39,South,182,0.0,3.0,87,0.00,,SKC,0.00,7.00,VWS V14.01,2013-03-01 14:21:00,
2013-03-01 07:28:00,25.6,22.0,30.37,South,183,2.0,3.0,86,0.00,,SKC,0.00,9.00,VWS V14.01,2013-03-01 14:28:00,
2013-03-01 07:30:00,25.8,21.9,30.38,South,183,2.0,3.0,85,0.00,,SKC,0.00,9.00,VWS V14.01,2013-03-01 14:30:00,
2013-03-01 07:34:00,26.0,21.8,30.38,South,183,0.0,2.0,84,0.00,,SKC,0.00,11.00,VWS V14.01,2013-03-01 14:34:00,
2013-03-01 07:40:00,26.3,21.9,30.38,South,183,1.0,3.0,83,0.00,,SKC,0.00,11.00,VWS V14.01,2013-03-01 14:40:00,
2013-03-01 07:45:00,26.6,21.9,30.38,South,183,0.0,3.0,82,0.00,,SKC,0.00,16.00,VWS V14.01,2013-03-01 14:45:00,
2013-03-01 07:52:00,26.9,22.1,30.38,South,182,0.0,2.0,82,0.00,,SKC,0.00,23.00,VWS V14.01,2013-03-01 14:52:00,
2013-03-01 07:58:00,27.0,22.0,30.38,South,183,2.0,2.0,81,0.00,,SKC,0.00,26.00,VWS V14.01,2013-03-01 14:58:00,
2013-03-01 08:00:00,27.2,22.1,30.38,South,183,2.0,4.0,81,0.00,,SKC,0.00,30.00,VWS V14.01,2013-03-01 15:00:00,
2013-03-01 08:04:00,27.3,22.2,30.40,South,182,1.0,5.0,81,0.00,,SKC,0.00,32.00,VWS V14.01,2013-03-01 15:04:00,
2013-03-01 08:10:00,27.6,22.2,30.39,SE,129,3.0,5.0,80,0.00,,SKC,0.00,32.00,VWS V14.01,2013-03-01 15:10:00,
2013-03-01 08:15:00,27.7,22.4,30.39,SE,131,4.0,5.0,80,0.00,,SKC,0.00,39.00,VWS V14.01,2013-03-01 15:15:00,
2013-03-01 08:16:00,27.7,22.4,30.39,SE,131,4.0,5.0,80,0.00,,SKC,0.00,39.00,VWS V14.01,2013-03-01 15:16:00,
2013-03-01 08:22:00,27.9,22.2,30.39,SE,131,2.0,4.0,79,0.00,,SKC,0.00,40.00,VWS V14.01,2013-03-01 15:22:00,
2013-03-01 08:28:00,28.1,22.4,30.40,SE,132,1.0,4.0,79,0.00,,SKC,0.00,49.00,VWS V14.01,2013-03-01 15:28:00,
2013-03-01 08:30:00,28.1,22.4,30.40,SE,132,2.0,4.0,79,0.00,,SKC,0.00,51.00,VWS V14.01,2013-03-01 15:30:00,
2013-03-01 08:34:00,28.0,22.3,30.40,NE,41,1.0,6.0,79,0.00,,SKC,0.00,56.00,VWS V14.01,2013-03-01 15:34:00,
2013-03-01 08:40:00,27.4,22.0,30.42,NNE,32,3.0,6.0,80,0.00,,SKC,0.00,63.00,VWS V14.01,2013-03-01 15:40:00,
2013-03-01 08:45:00,26.9,22.1,30.42,NNE,17,0.0,6.0,82,0.00,,SKC,0.00,70.00,VWS V14.01,2013-03-01 15:45:00,
2013-03-01 08:52:00,26.7,22.0,30.43,NNE,17,0.0,3.0,82,0.00,,SKC,0.00,77.00,VWS V14.01,2013-03-01 15:52:00,
2013-03-01 08:58:00,26.6,22.1,30.43,NNE,17,0.0,3.0,83,0.00,,SKC,0.00,93.00,VWS V14.01,2013-03-01 15:58:00,
2013-03-01 09:00:00,26.7,22.5,30.43,NNE,17,2.0,3.0,84,0.00,,SKC,0.00,95.00,VWS V14.01,2013-03-01 16:00:00,
2013-03-01 09:04:00,26.7,22.5,30.43,NNE,17,0.0,2.0,84,0.00,,SKC,0.00,93.00,VWS V14.01,2013-03-01 16:04:00,
2013-03-01 09:10:00,26.7,22.5,30.43,NNE,17,0.0,2.0,84,0.00,,SKC,0.00,107.00,VWS V14.01,2013-03-01 16:10:00,
2013-03-01 09:15:00,26.9,22.7,30.43,NNE,17,0.0,2.0,84,0.00,,SKC,0.00,130.00,VWS V14.01,2013-03-01 16:15:00,
2013-03-01 09:16:00,26.9,22.7,30.43,NNE,17,0.0,2.0,84,0.00,,SKC,0.00,130.00,VWS V14.01,2013-03-01 16:16:00,
2013-03-01 09:22:00,27.2,23.0,30.43,NNE,17,1.0,3.0,84,0.00,,SKC,0.00,135.00,VWS V14.01,2013-03-01 16:22:00,
2013-03-01 09:28:00,27.5,23.3,30.44,NNE,24,2.0,4.0,84,0.00,,SKC,0.00,144.00,VWS V14.01,2013-03-01 16:28:00,
2013-03-01 09:30:00,27.5,23.3,30.44,NNE,29,2.0,4.0,84,0.00,,SKC,0.00,142.00,VWS V14.01,2013-03-01 16:30:00,
2013-03-01 09:34:00,27.5,23.3,30.44,NNE,28,1.0,4.0,84,0.00,,SKC,0.00,151.00,VWS V14.01,2013-03-01 16:34:00,
2013-03-01 09:40:00,27.7,23.2,30.44,NE,40,2.0,7.0,83,0.00,,SKC,0.00,163.00,VWS V14.01,2013-03-01 16:40:00,
2013-03-01 09:45:00,27.8,23.3,30.44,NE,39,4.0,7.0,83,0.00,,SKC,0.00,183.00,VWS V14.01,2013-03-01 16:45:00,
2013-03-01 09:46:00,27.8,23.3,30.44,NE,39,4.0,7.0,83,0.00,,SKC,0.00,183.00,VWS V14.01,2013-03-01 16:46:00,
2013-03-01 09:52:00,28.1,23.6,30.44,NE,40,3.0,4.0,83,0.00,,SKC,0.00,200.00,VWS V14.01,2013-03-01 16:52:00,
2013-03-01 09:58:00,28.5,24.0,30.44,NE,44,1.0,5.0,83,0.00,,SKC,0.00,272.00,VWS V14.01,2013-03-01 16:58:00,
2013-03-01 10:00:00,28.7,23.9,30.42,NE,40,0.0,5.0,82,0.00,,SKC,0.00,265.00,VWS V14.01,2013-03-01 17:00:00,
2013-03-01 10:04:00,29.0,24.2,30.42,NE,38,2.0,5.0,82,0.00,,SKC,0.00,272.00,VWS V14.01,2013-03-01 17:04:00,
2013-03-01 10:10:00,29.5,24.1,30.42,NE,41,5.0,6.0,80,0.00,,SKC,0.00,308.00,VWS V14.01,2013-03-01 17:10:00,
2013-03-01 10:15:00,30.1,24.7,30.42,NE,41,0.0,6.0,80,0.00,,SKC,0.00,316.00,VWS V14.01,2013-03-01 17:15:00,
2013-03-01 10:21:00,30.5,24.8,30.40,NE,41,1.0,5.0,79,0.00,,SKC,0.00,311.00,VWS V14.01,2013-03-01 17:21:00,
2013-03-01 10:27:00,31.0,24.6,30.40,NE,41,2.0,5.0,77,0.00,,SKC,0.00,265.00,VWS V14.01,2013-03-01 17:27:00,
2013-03-01 10:30:00,31.1,24.4,30.41,NE,41,3.0,5.0,76,0.00,,SKC,0.00,234.00,VWS V14.01,2013-03-01 17:30:00,
2013-03-01 10:33:00,31.1,24.4,30.41,NNE,33,2.0,6.0,76,0.00,,SKC,0.00,241.00,VWS V14.01,2013-03-01 17:33:00,
2013-03-01 10:39:00,31.3,24.6,30.41,North,350,2.0,6.0,76,0.00,,SKC,0.00,267.00,VWS V14.01,2013-03-01 17:39:00,
2013-03-01 10:45:00,31.5,24.8,30.41,NE,40,6.0,9.0,76,0.00,,SKC,0.00,272.00,VWS V14.01,2013-03-01 17:45:00,
2013-03-01 10:51:00,31.5,24.5,30.42,NNW,337,6.0,7.0,75,0.00,,SKC,0.00,294.00,VWS V14.01,2013-03-01 17:51:00,
2013-03-01 10:57:00,32.0,25.0,30.41,NE,38,1.0,7.0,75,0.00,,SKC,0.00,343.00,VWS V14.01,2013-03-01 17:57:00,
2013-03-01 11:00:00,32.2,25.2,30.41,NE,46,1.0,7.0,75,0.00,,SKC,0.00,362.00,VWS V14.01,2013-03-01 18:00:00,
2013-03-01 11:03:00,32.3,25.3,30.41,NE,36,5.0,6.0,75,0.00,,SKC,0.00,373.00,VWS V14.01,2013-03-01 18:03:00,
2013-03-01 11:09:00,32.9,25.2,30.40,NNE,24,1.0,6.0,73,0.00,,SKC,0.00,352.00,VWS V14.01,2013-03-01 18:09:00,
2013-03-01 11:15:00,33.1,25.1,30.41,NNE,19,4.0,6.0,72,0.00,,SKC,0.00,330.00,VWS V14.01,2013-03-01 18:15:00,
2013-03-01 11:21:00,33.4,25.4,30.41,NE,51,2.0,6.0,72,0.00,,SKC,0.00,327.00,VWS V14.01,2013-03-01 18:21:00,
2013-03-01 11:27:00,33.7,25.6,30.40,NE,44,0.0,6.0,72,0.00,,SKC,0.00,374.00,VWS V14.01,2013-03-01 18:27:00,
2013-03-01 11:30:00,34.1,26.0,30.41,NNE,15,3.0,6.0,72,0.01,,SKC,0.01,380.00,VWS V14.01,2013-03-01 18:30:00,
2013-03-01 11:33:00,34.4,26.0,30.40,NNE,21,2.0,5.0,71,0.01,,SKC,0.01,360.00,VWS V14.01,2013-03-01 18:33:00,
2013-03-01 11:39:00,34.4,25.6,30.40,NNE,14,2.0,8.0,70,0.01,,SKC,0.01,392.00,VWS V14.01,2013-03-01 18:39:00,
2013-03-01 11:45:00,34.4,26.0,30.40,NNW,346,3.0,8.0,71,0.01,,SKC,0.01,429.00,VWS V14.01,2013-03-01 18:45:00,
2013-03-01 11:51:00,35.2,26.1,30.39,NE,40,1.0,5.0,69,0.01,,SKC,0.01,441.00,VWS V14.01,2013-03-01 18:51:00,
2013-03-01 11:57:00,35.3,25.8,30.38,NE,40,2.0,6.0,68,0.01,,SKC,0.01,482.00,VWS V14.01,2013-03-01 18:57:00,
2013-03-01 12:00:00,35.7,26.2,30.38,NE,41,3.0,6.0,68,0.01,,SKC,0.01,425.00,VWS V14.01,2013-03-01 19:00:00,
2013-03-01 12:03:00,35.9,26.4,30.39,NE,37,3.0,4.0,68,0.01,,SKC,0.01,417.00,VWS V14.01,2013-03-01 19:03:00,
2013-03-01 12:09:00,36.4,26.5,30.38,NE,43,3.0,6.0,67,0.01,,SKC,0.01,935.00,VWS V14.01,2013-03-01 19:09:00,
2013-03-01 12:15:00,37.4,26.4,30.36,NE,44,0.0,6.0,64,0.01,,SKC,0.01,867.00,VWS V14.01,2013-03-01 19:15:00,
2013-03-01 12:21:00,38.3,27.2,30.36,NE,40,0.0,6.0,64,0.01,,SKC,0.01,854.00,VWS V14.01,2013-03-01 19:21:00,
2013-03-01 12:27:00,39.0,26.7,30.34,NE,51,4.0,7.0,61,0.01,,SKC,0.01,821.00,VWS V14.01,2013-03-01 19:27:00,
2013-03-01 12:30:00,39.5,27.6,30.34,NE,50,5.0,9.0,62,0.01,,SKC,0.01,849.00,VWS V14.01,2013-03-01 19:30:00,
2013-03-01 12:33:00,39.5,26.8,30.34,NE,39,5.0,7.0,60,0.00,,SKC,0.01,853.00,VWS V14.01,2013-03-01 19:33:00,
2013-03-01 12:39:00,39.5,27.2,30.34,NE,34,4.0,10.0,61,0.00,,SKC,0.01,895.00,VWS V14.01,2013-03-01 19:39:00,
2013-03-01 12:45:00,38.7,26.8,30.34,NNE,30,6.0,14.0,62,0.00,,SKC,0.01,939.00,VWS V14.01,2013-03-01 19:45:00,
2013-03-01 12:51:00,38.1,26.2,30.35,NNE,19,14.0,16.0,62,0.00,,SKC,0.01,956.00,VWS V14.01,2013-03-01 19:51:00,
2013-03-01 12:57:00,37.0,26.0,30.35,NNE,20,10.0,16.0,64,0.00,,SKC,0.01,251.00,VWS V14.01,2013-03-01 19:57:00,
2013-03-01 13:00:00,36.5,25.9,30.35,North,9,11.0,16.0,65,0.00,,SKC,0.01,246.00,VWS V14.01,2013-03-01 20:00:00,
2013-03-01 13:03:00,36.4,26.1,30.36,NNW,334,2.0,11.0,66,0.00,,SKC,0.01,295.00,VWS V14.01,2013-03-01 20:03:00,
2013-03-01 13:09:00,37.6,26.5,30.35,NNE,14,11.0,13.0,64,0.00,,SKC,0.01,295.00,VWS V14.01,2013-03-01 20:09:00,
2013-03-01 13:15:00,37.0,26.0,30.34,NNW,337,3.0,14.0,64,0.00,,SKC,0.01,236.00,VWS V14.01,2013-03-01 20:15:00,
2013-03-01 13:21:00,36.3,25.7,30.36,North,349,5.0,15.0,65,0.00,,SKC,0.01,290.00,VWS V14.01,2013-03-01 20:21:00,
2013-03-01 13:27:00,37.1,26.8,30.34,NNW,344,1.0,15.0,66,0.00,,SKC,0.01,265.00,VWS V14.01,2013-03-01 20:27:00,
2013-03-01 13:30:00,37.3,26.6,30.34,NNE,24,5.0,15.0,65,0.00,,SKC,0.01,213.00,VWS V14.01,2013-03-01 20:30:00,
2013-03-01 13:33:00,37.4,26.4,30.33,NE,41,2.0,8.0,64,0.00,,SKC,0.01,283.00,VWS V14.01,2013-03-01 20:33:00,
2013-03-01 13:39:00,38.4,26.9,30.33,NW,326,7.0,8.0,63,0.00,,SKC,0.01,264.00,VWS V14.01,2013-03-01 20:39:00,
2013-03-01 13:45:00,40.1,27.4,30.31,NE,46,6.0,8.0,60,0.00,,SKC,0.01,207.00,VWS V14.01,2013-03-01 20:45:00,
2013-03-01 13:51:00,40.5,27.7,30.31,North,11,3.0,5.0,60,0.00,,SKC,0.01,218.00,VWS V14.01,2013-03-01 20:51:00,
2013-03-01 13:57:00,42.1,28.0,30.29,NE,41,4.0,5.0,57,0.00,,SKC,0.01,867.00,VWS V14.01,2013-03-01 20:57:00,
2013-03-01 14:00:00,42.4,27.8,30.29,NNE,31,1.0,7.0,56,0.00,,SKC,0.01,896.00,VWS V14.01,2013-03-01 21:00:00,
2013-03-01 14:03:00,42.4,27.8,30.30,NNW,344,6.0,6.0,56,0.00,,SKC,0.01,777.00,VWS V14.01,2013-03-01 21:03:00,
2013-03-01 14:09:00,42.2,27.2,30.30,NNE,26,5.0,6.0,55,0.00,,SKC,0.01,223.00,VWS V14.01,2013-03-01 21:09:00,
2013-03-01 14:15:00,41.3,26.8,30.30,NNE,14,2.0,6.0,56,0.00,,SKC,0.01,156.00,VWS V14.01,2013-03-01 21:15:00,
2013-03-01 14:22:00,40.5,26.5,30.30,NNE,13,1.0,10.0,57,0.00,,SKC,0.01,151.00,VWS V14.01,2013-03-01 21:22:00,
2013-03-01 14:28:00,39.9,26.3,30.31,NNE,17,1.0,10.0,58,0.00,,SKC,0.01,148.00,VWS V14.01,2013-03-01 21:28:00,
2013-03-01 14:30:00,39.8,26.7,30.31,North,9,0.0,10.0,59,0.00,,SKC,0.01,146.00,VWS V14.01,2013-03-01 21:30:00,
2013-03-01 14:34:00,39.7,26.6,30.31,NNW,345,0.0,5.0,59,0.00,,SKC,0.01,188.00,VWS V14.01,2013-03-01 21:34:00,
2013-03-01 14:40:00,40.5,26.9,30.31,North,11,1.0,5.0,58,0.00,,SKC,0.01,220.00,VWS V14.01,2013-03-01 21:40:00,
2013-03-01 14:45:00,41.3,26.8,30.30,North,360,2.0,5.0,56,0.00,,SKC,0.01,673.00,VWS V14.01,2013-03-01 21:45:00,
2013-03-01 14:52:00,42.7,27.2,30.28,NE,40,3.0,7.0,54,0.00,,SKC,0.01,677.00,VWS V14.01,2013-03-01 21:52:00,
2013-03-01 14:58:00,43.1,26.7,30.27,NNE,28,2.0,7.0,52,0.00,,SKC,0.01,675.00,VWS V14.01,2013-03-01 21:58:00,
2013-03-01 15:00:00,43.3,26.4,30.27,NNE,26,1.0,7.0,51,0.00,,SKC,0.01,640.00,VWS V14.01,2013-03-01 22:00:00,
2013-03-01 15:04:00,43.5,26.6,30.25,NNE,32,2.0,6.0,51,0.00,,SKC,0.01,308.00,VWS V14.01,2013-03-01 22:04:00,
2013-03-01 15:10:00,42.9,26.5,30.27,NNE,14,3.0,9.0,52,0.00,,SKC,0.01,151.00,VWS V14.01,2013-03-01 22:10:00,
2013-03-01 15:15:00,42.4,26.5,30.27,NNE,22,6.0,9.0,53,0.00,,SKC,0.01,606.00,VWS V14.01,2013-03-01 22:15:00,
2013-03-01 15:16:00,42.4,26.5,30.27,NNE,22,6.0,9.0,53,0.00,,SKC,0.01,606.00,VWS V14.01,2013-03-01 22:16:00,
2013-03-01 15:21:00,42.8,26.4,30.27,NNE,28,10.0,10.0,52,0.00,,SKC,0.01,577.00,VWS V14.01,2013-03-01 22:21:00,
2013-03-01 15:27:00,43.2,26.8,30.29,NE,49,2.0,11.0,52,0.00,,SKC,0.01,563.00,VWS V14.01,2013-03-01 22:27:00,
2013-03-01 15:30:00,43.1,26.7,30.29,NE,34,8.0,12.0,52,0.00,,SKC,0.01,547.00,VWS V14.01,2013-03-01 22:30:00,
2013-03-01 15:33:00,42.9,26.5,30.29,North,11,4.0,13.0,52,0.00,,SKC,0.01,559.00,VWS V14.01,2013-03-01 22:33:00,
2013-03-01 15:39:00,42.7,26.8,30.29,NNE,21,6.0,13.0,53,0.00,,SKC,0.01,541.00,VWS V14.01,2013-03-01 22:39:00,
2013-03-01 15:45:00,42.0,26.6,30.29,NE,34,3.0,13.0,54,0.00,,SKC,0.01,132.00,VWS V14.01,2013-03-01 22:45:00,
2013-03-01 15:51:00,41.0,26.5,30.30,North,11,3.0,10.0,56,0.00,,SKC,0.01,120.00,VWS V14.01,2013-03-01 22:51:00,
2013-03-01 15:57:00,40.4,26.8,30.30,NNE,16,10.0,10.0,58,0.00,,SKC,0.01,109.00,VWS V14.01,2013-03-01 22:57:00,
2013-03-01 16:00:00,40.1,26.9,30.31,North,350,2.0,10.0,59,0.00,,SKC,0.01,123.00,VWS V14.01,2013-03-01 23:00:00,
2013-03-01 16:03:00,40.1,26.9,30.31,NNW,340,0.0,3.0,59,0.00,,SKC,0.01,121.00,VWS V14.01,2013-03-01 23:03:00,
2013-03-01 16:09:00,40.0,27.2,30.30,North,355,1.0,3.0,60,0.00,,SKC,0.01,127.00,VWS V14.01,2013-03-01 23:09:00,
2013-03-01 16:15:00,40.0,26.8,30.31,NNE,13,3.0,6.0,59,0.00,,SKC,0.01,301.00,VWS V14.01,2013-03-01 23:15:00,
2013-03-01 16:21:00,40.1,26.9,30.30,NNE,32,4.0,5.0,59,0.00,,SKC,0.01,132.00,VWS V14.01,2013-03-01 23:21:00,
2013-03-01 16:27:00,39.9,26.3,30.31,NNE,15,5.0,7.0,58,0.00,,SKC,0.01,134.00,VWS V14.01,2013-03-01 23:27:00,
2013-03-01 16:30:00,39.9,26.3,30.30,NNE,15,6.0,7.0,58,0.00,,SKC,0.01,128.00,VWS V14.01,2013-03-01 23:30:00,
2013-03-01 16:33:00,39.9,25.9,30.30,NNE,15,3.0,6.0,57,0.00,,SKC,0.01,114.00,VWS V14.01,2013-03-01 23:33:00,
2013-03-01 16:39:00,39.8,26.2,30.30,North,5,2.0,7.0,58,0.00,,SKC,0.01,118.00,VWS V14.01,2013-03-01 23:39:00,
2013-03-01 16:45:00,39.8,26.7,30.31,NNW,348,0.0,7.0,59,0.00,,SKC,0.01,98.00,VWS V14.01,2013-03-01 23:45:00,
2013-03-01 16:51:00,39.8,26.2,30.31,NNW,348,1.0,4.0,58,0.00,,SKC,0.01,65.00,VWS V14.01,2013-03-01 23:51:00,
2013-03-01 16:57:00,39.8,25.8,30.30,NNW,348,0.0,4.0,57,0.00,,SKC,0.01,56.00,VWS V14.01,2013-03-01 23:57:00,
2013-03-01 17:00:00,39.7,25.7,30.30,NNW,348,0.0,4.0,57,0.00,,SKC,0.01,51.00,VWS V14.01,2013-03-02 00:00:00,
2013-03-01 17:03:00,39.7,26.1,30.31,NNW,348,0.0,1.0,58,0.00,,SKC,0.01,44.00,VWS V14.01,2013-03-02 00:03:00,
2013-03-01 17:09:00,39.6,26.1,30.31,NNW,348,0.0,3.0,58,0.00,,SKC,0.01,35.00,VWS V14.01,2013-03-02 00:09:00,
2013-03-01 17:15:00,39.5,26.0,30.31,NNW,348,0.0,3.0,58,0.00,,SKC,0.01,28.00,VWS V14.01,2013-03-02 00:15:00,
2013-03-01 17:21:00,39.4,25.9,30.32,NNW,348,0.0,0.0,58,0.00,,SKC,0.01,25.00,VWS V14.01,2013-03-02 00:21:00,
2013-03-01 17:27:00,39.2,26.1,30.33,NNW,348,0.0,0.0,59,0.00,,SKC,0.01,19.00,VWS V14.01,2013-03-02 00:27:00,
2013-03-01 17:30:00,39.1,26.0,30.32,NNW,348,0.0,0.0,59,0.00,,SKC,0.01,21.00,VWS V14.01,2013-03-02 00:30:00,
2013-03-01 17:33:00,39.0,25.9,30.33,NNW,348,0.0,1.0,59,0.00,,SKC,0.01,21.00,VWS V14.01,2013-03-02 00:33:00,
2013-03-01 17:39:00,38.5,25.8,30.32,NNW,348,0.0,1.0,60,0.00,,SKC,0.01,14.00,VWS V14.01,2013-03-02 00:39:00,
2013-03-01 17:45:00,37.9,25.3,30.33,NNW,348,0.0,2.0,60,0.00,,SKC,0.01,11.00,VWS V14.01,2013-03-02 00:45:00,
2013-03-01 17:52:00,37.4,24.8,30.35,NNW,348,1.0,1.0,60,0.00,,SKC,0.01,7.00,VWS V14.01,2013-03-02 00:52:00,
2013-03-01 17:58:00,36.8,23.8,30.35,NNW,348,2.0,2.0,59,0.00,,SKC,0.01,5.00,VWS V14.01,2013-03-02 00:58:00,
2013-03-01 18:00:00,36.5,23.5,30.35,NNW,344,0.0,3.0,59,0.00,,SKC,0.01,0.00,VWS V14.01,2013-03-02 01:00:00,
2013-03-01 18:04:00,36.2,23.7,30.35,NNW,344,0.0,0.0,60,0.00,,SKC,0.01,0.00,VWS V14.01,2013-03-02 01:04:00,
2013-03-01 18:10:00,35.9,23.8,30.36,NNW,344,0.0,0.0,61,0.00,,SKC,0.01,0.00,VWS V14.01,2013-03-02 01:10:00,
2013-03-01 18:15:00,35.5,23.8,30.36,NNW,344,0.0,0.0,62,0.00,,SKC,0.01,0.00,VWS V14.01,2013-03-02 01:15:00,
2013-03-01 18:21:00,35.0,23.7,30.39,NNW,344,0.0,0.0,63,0.00,,SKC,0.01,0.00,VWS V14.01,2013-03-02 01:21:00,
2013-03-01 18:27:00,34.4,23.5,30.39,NNW,344,0.0,1.0,64,0.00,,SKC,0.01,0.00,VWS V14.01,2013-03-02 01:27:00,
2013-03-01 18:30:00,34.0,23.1,30.39,NNW,344,0.0,1.0,64,0.00,,SKC,0.01,0.00,VWS V14.01,2013-03-02 01:30:00,
2013-03-01 18:33:00,33.7,22.8,30.39,NNW,344,0.0,0.0,64,0.00,,SKC,0.01,0.00,VWS V14.01,2013-03-02 01:33:00,
2013-03-01 18:39:00,33.0,22.5,30.40,NNW,344,0.0,1.0,65,0.00,,SKC,0.01,0.00,VWS V14.01,2013-03-02 01:39:00,
2013-03-01 18:45:00,32.4,22.7,30.40,NNW,344,0.0,1.0,67,0.00,,SKC,0.01,0.00,VWS V14.01,2013-03-02 01:45:00,
2013-03-01 18:46:00,32.5,22.8,30.40,NNW,344,0.0,1.0,67,0.00,,SKC,0.01,0.00,VWS V14.01,2013-03-02 01:46:00,
2013-03-01 18:52:00,32.0,22.6,30.40,NNW,344,0.0,0.0,68,0.00,,SKC,0.01,0.00,VWS V14.01,2013-03-02 01:52:00,
2013-03-01 18:57:00,31.7,22.7,30.40,NNW,344,0.0,0.0,69,0.00,,SKC,0.01,0.00,VWS V14.01,2013-03-02 01:57:00,
2013-03-01 19:00:00,31.5,22.9,30.40,NNW,344,0.0,2.0,70,0.00,,SKC,0.01,0.00,VWS V14.01,2013-03-02 02:00:00,
2013-03-01 19:03:00,31.4,23.1,30.39,NNW,344,3.0,3.0,71,0.00,,SKC,0.01,0.00,VWS V14.01,2013-03-02 02:03:00,
2013-03-01 19:09:00,31.2,23.2,30.39,NNW,344,2.0,4.0,72,0.00,,SKC,0.01,0.00,VWS V14.01,2013-03-02 02:09:00,
2013-03-01 19:15:00,31.3,23.3,30.39,NNW,344,1.0,4.0,72,0.00,,SKC,0.01,0.00,VWS V14.01,2013-03-02 02:15:00,
2013-03-01 19:21:00,31.4,23.8,30.39,NNW,344,0.0,3.0,73,0.00,,SKC,0.01,0.00,VWS V14.01,2013-03-02 02:21:00,
2013-03-01 19:28:00,31.6,23.6,30.39,NNW,344,0.0,3.0,72,0.00,,SKC,0.01,0.00,VWS V14.01,2013-03-02 02:28:00,
2013-03-01 19:30:00,31.7,23.7,30.39,NNW,344,0.0,3.0,72,0.00,,SKC,0.01,0.00,VWS V14.01,2013-03-02 02:30:00,
2013-03-01 19:34:00,31.7,23.7,30.39,NNW,344,0.0,0.0,72,0.00,,SKC,0.01,0.00,VWS V14.01,2013-03-02 02:34:00,
2013-03-01 19:40:00,32.0,24.0,30.39,NNW,344,2.0,2.0,72,0.00,,SKC,0.01,0.00,VWS V14.01,2013-03-02 02:40:00,
2013-03-01 19:45:00,32.2,23.9,30.39,NNW,344,1.0,3.0,71,0.00,,SKC,0.01,0.00,VWS V14.01,2013-03-02 02:45:00,
2013-03-01 19:46:00,32.2,23.9,30.39,NNW,344,1.0,3.0,71,0.00,,SKC,0.01,0.00,VWS V14.01,2013-03-02 02:46:00,
2013-03-01 19:52:00,32.5,24.2,30.38,NNW,344,1.0,3.0,71,0.00,,SKC,0.01,0.00,VWS V14.01,2013-03-02 02:52:00,
2013-03-01 19:58:00,32.8,24.1,30.38,SSW,203,2.0,6.0,70,0.00,,SKC,0.01,0.00,VWS V14.01,2013-03-02 02:58:00,
2013-03-01 20:00:00,32.9,24.2,30.38,SSW,203,3.0,6.0,70,0.00,,SKC,0.01,0.00,VWS V14.01,2013-03-02 03:00:00,
2013-03-01 20:04:00,33.0,24.3,30.38,SSW,203,3.0,3.0,70,0.00,,SKC,0.01,0.00,VWS V14.01,2013-03-02 03:04:00,
2013-03-01 20:10:00,33.1,24.0,30.38,SSW,203,0.0,3.0,69,0.00,,SKC,0.01,0.00,VWS V14.01,2013-03-02 03:10:00,
2013-03-01 20:15:00,33.2,24.1,30.38,SSW,203,1.0,3.0,69,0.00,,SKC,0.01,0.00,VWS V14.01,2013-03-02 03:15:00,
2013-03-01 20:16:00,33.2,24.1,30.38,SSW,203,1.0,3.0,69,0.00,,SKC,0.01,0.00,VWS V14.01,2013-03-02 03:16:00,
2013-03-01 20:22:00,33.3,24.6,30.38,SSW,203,0.0,3.0,70,0.00,,SKC,0.01,0.00,VWS V14.01,2013-03-02 03:22:00,
2013-03-01 20:28:00,33.2,24.5,30.38,SSW,203,0.0,3.0,70,0.00,,SKC,0.01,0.00,VWS V14.01,2013-03-02 03:28:00,
2013-03-01 20:30:00,33.2,24.5,30.38,SSW,203,0.0,3.0,70,0.00,,SKC,0.01,0.00,VWS V14.01,2013-03-02 03:30:00,
2013-03-01 20:34:00,33.2,24.8,30.38,SSW,204,0.0,0.0,71,0.00,,SKC,0.01,0.00,VWS V14.01,2013-03-02 03:34:00,
2013-03-01 20:40:00,33.2,24.8,30.38,SSW,204,0.0,0.0,71,0.00,,SKC,0.01,0.00,VWS V14.01,2013-03-02 03:40:00,
2013-03-01 20:45:00,33.0,24.6,30.38,SSW,204,3.0,4.0,71,0.00,,SKC,0.01,0.00,VWS V14.01,2013-03-02 03:45:00,
2013-03-01 20:46:00,33.0,24.6,30.38,SSW,204,3.0,4.0,71,0.00,,SKC,0.01,0.00,VWS V14.01,2013-03-02 03:46:00,
2013-03-01 20:51:00,33.1,24.4,30.38,SSW,204,3.0,5.0,70,0.00,,SKC,0.01,0.00,VWS V14.01,2013-03-02 03:51:00,
2013-03-01 20:57:00,33.2,24.1,30.38,SSW,204,2.0,5.0,69,0.00,,SKC,0.01,0.00,VWS V14.01,2013-03-02 03:57:00,
2013-03-01 21:00:00,33.3,24.2,30.38,SSW,203,0.0,5.0,69,0.00,,SKC,0.01,0.00,VWS V14.01,2013-03-02 04:00:00,
2013-03-01 21:03:00,33.3,24.2,30.37,SSW,204,2.0,2.0,69,0.00,,SKC,0.01,0.00,VWS V14.01,2013-03-02 04:03:00,
2013-03-01 21:09:00,33.4,24.3,30.37,SSW,203,3.0,4.0,69,0.00,,SKC,0.01,0.00,VWS V14.01,2013-03-02 04:09:00,
2013-03-01 21:15:00,33.5,24.4,30.36,SW,221,4.0,6.0,69,0.00,,SKC,0.01,0.00,VWS V14.01,2013-03-02 04:15:00,
2013-03-01 21:21:00,33.7,24.6,30.36,SSW,209,2.0,5.0,69,0.00,,SKC,0.01,0.00,VWS V14.01,2013-03-02 04:21:00,
2013-03-01 21:27:00,33.8,24.4,30.36,SSW,209,2.0,5.0,68,0.00,,SKC,0.01,0.00,VWS V14.01,2013-03-02 04:27:00,
2013-03-01 21:30:00,33.8,24.4,30.36,South,175,2.0,5.0,68,0.00,,SKC,0.01,0.00,VWS V14.01,2013-03-02 04:30:00,
2013-03-01 21:33:00,33.8,24.7,30.36,South,176,5.0,6.0,69,0.00,,SKC,0.01,0.00,VWS V14.01,2013-03-02 04:33:00,
2013-03-01 21:39:00,33.9,24.5,30.36,SSW,205,2.0,6.0,68,0.00,,SKC,0.01,0.00,VWS V14.01,2013-03-02 04:39:00,
2013-03-01 21:45:00,34.0,24.6,30.36,SSW,205,0.0,6.0,68,0.00,,SKC,0.01,0.00,VWS V14.01,2013-03-02 04:45:00,
2013-03-01 21:51:00,33.9,24.5,30.36,SSW,205,0.0,2.0,68,0.00,,SKC,0.01,0.00,VWS V14.01,2013-03-02 04:51:00,
2013-03-01 21:57:00,33.9,24.5,30.37,NE,38,1.0,4.0,68,0.00,,SKC,0.01,0.00,VWS V14.01,2013-03-02 04:57:00,
2013-03-01 22:00:00,33.7,24.6,30.36,NE,38,2.0,4.0,69,0.00,,SKC,0.01,0.00,VWS V14.01,2013-03-02 05:00:00,
2013-03-01 22:02:00,33.7,24.6,30.33,NE,38,2.0,3.0,69,0.00,,SKC,0.01,0.00,VWS V14.01,2013-03-02 05:02:00,
2013-03-01 22:05:00,33.6,24.5,30.34,NE,38,0.0,3.0,69,0.00,,SKC,0.01,0.00,VWS V14.01,2013-03-02 05:05:00,
2013-03-01 22:11:00,33.5,24.4,30.34,NE,37,0.0,3.0,69,0.00,,SKC,0.01,0.00,VWS V14.01,2013-03-02 05:11:00,
2013-03-01 22:15:00,33.4,24.7,30.35,NE,38,0.0,3.0,70,0.00,,SKC,0.01,0.00,VWS V14.01,2013-03-02 05:15:00,
2013-03-01 22:21:00,33.3,24.6,30.35,NE,38,1.0,3.0,70,0.00,,SKC,0.01,0.00,VWS V14.01,2013-03-02 05:21:00,
2013-03-01 22:27:00,33.0,24.3,30.35,NE,37,0.0,3.0,70,0.00,,SKC,0.01,0.00,VWS V14.01,2013-03-02 05:27:00,
2013-03-01 22:30:00,32.9,24.2,30.35,NE,37,0.0,3.0,70,0.00,,SKC,0.01,0.00,VWS V14.01,2013-03-02 05:30:00,
2013-03-01 22:33:00,32.8,24.1,30.35,NE,37,0.0,0.0,70,0.00,,SKC,0.01,0.00,VWS V14.01,2013-03-02 05:33:00,
2013-03-01 22:40:00,32.6,24.2,30.35,NE,38,1.0,2.0,71,0.00,,SKC,0.01,0.00,VWS V14.01,2013-03-02 05:40:00,
2013-03-01 22:45:00,32.4,24.4,30.35,NE,38,0.0,2.0,72,0.00,,SKC,0.01,0.00,VWS V14.01,2013-03-02 05:45:00,
2013-03-01 22:46:00,32.4,24.4,30.35,NE,38,0.0,2.0,72,0.00,,SKC,0.01,0.00,VWS V14.01,2013-03-02 05:46:00,
2013-03-01 22:52:00,32.1,24.1,30.36,NE,38,0.0,0.0,72,0.00,,SKC,0.01,0.00,VWS V14.01,2013-03-02 05:52:00,
2013-03-01 22:58:00,32.0,24.3,30.36,NE,38,0.0,0.0,73,0.00,,SKC,0.01,0.00,VWS V14.01,2013-03-02 05:58:00,
2013-03-01 23:00:00,31.8,24.1,30.36,NE,38,0.0,0.0,73,0.00,,SKC,0.01,0.00,VWS V14.01,2013-03-02 06:00:00,
2013-03-01 23:04:00,31.7,24.0,30.33,NE,38,0.0,0.0,73,0.00,,SKC,0.01,0.00,VWS V14.01,2013-03-02 06:04:00,
2013-03-01 23:11:00,31.5,24.2,30.33,NE,38,0.0,0.0,74,0.00,,SKC,0.01,0.00,VWS V14.01,2013-03-02 06:11:00,
2013-03-01 23:15:00,31.4,24.1,30.35,NE,37,0.0,0.0,74,0.00,,SKC,0.01,0.00,VWS V14.01,2013-03-02 06:15:00,
2013-03-01 23:17:00,31.4,24.1,30.35,NE,38,0.0,0.0,74,0.00,,SKC,0.01,0.00,VWS V14.01,2013-03-02 06:17:00,
2013-03-01 23:23:00,31.2,23.9,30.35,NE,37,0.0,0.0,74,0.00,,SKC,0.01,0.00,VWS V14.01,2013-03-02 06:23:00,
2013-03-01 23:29:00,31.0,24.0,30.35,NE,38,0.0,0.0,75,0.00,,SKC,0.01,0.00,VWS V14.01,2013-03-02 06:29:00,
2013-03-01 23:35:00,31.0,24.3,30.35,NE,38,0.0,0.0,76,0.00,,SKC,0.01,0.00,VWS V14.01,2013-03-02 06:35:00,
2013-03-01 23:42:00,30.8,24.5,30.35,NE,37,2.0,2.0,77,0.00,,SKC,0.01,0.00,VWS V14.01,2013-03-02 06:42:00,
2013-03-01 23:45:00,30.8,24.5,30.35,NE,37,0.0,2.0,77,0.00,,SKC,0.01,0.00,VWS V14.01,2013-03-02 06:45:00,
2013-03-01 23:47:00,30.8,24.5,30.35,NE,37,0.0,0.0,77,0.00,,SKC,0.01,0.00,VWS V14.01,2013-03-02 06:47:00,
2013-03-01 23:53:00,30.7,24.4,30.35,NE,37,0.0,0.0,77,0.00,,SKC,0.01,0.00,VWS V14.01,2013-03-02 06:53:00,
2013-03-01 23:59:00,30.7,24.4,30.35,NE,38,0.0,0.0,77,0.00,,SKC,0.01,0.00,VWS V14.01,2013-03-02 06:59:00,